sensor_id;sensor_type;location;lat;lon;timestamp;pressure;altitude;pressure_sealevel;temperature;humidity
10978;BME280;5542;48.272;10.794;2023-02-15T00:00:06;97041.66;;;-1.28;96.62
10978;BME280;5542;48.272;10.794;2023-02-15T00:02:33;97040.75;;;-1.49;96.22
10978;BME280;5542;48.272;10.794;2023-02-15T00:05:01;97029.66;;;-1.61;97.26
10978;BME280;5542;48.272;10.794;2023-02-15T00:07:27;97037.59;;;-1.53;98.23
10978;BME280;5542;48.272;10.794;2023-02-15T00:09:54;97026.09;;;-1.49;98.72
10978;BME280;5542;48.272;10.794;2023-02-15T00:12:20;97021.38;;;-1.33;99.11
10978;BME280;5542;48.272;10.794;2023-02-15T00:14:47;97015.56;;;-1.25;99.29
10978;BME280;5542;48.272;10.794;2023-02-15T00:17:14;97016.59;;;-1.16;99.05
10978;BME280;5542;48.272;10.794;2023-02-15T00:19:40;97020.16;;;-1.29;97.94
10978;BME280;5542;48.272;10.794;2023-02-15T00:22:09;97016.75;;;-1.29;97.50
10978;BME280;5542;48.272;10.794;2023-02-15T00:24:35;97026.63;;;-1.34;97.50
10978;BME280;5542;48.272;10.794;2023-02-15T00:27:02;97027.09;;;-1.29;98.22
10978;BME280;5542;48.272;10.794;2023-02-15T00:29:29;97024.34;;;-1.16;98.60
10978;BME280;5542;48.272;10.794;2023-02-15T00:31:55;97027.97;;;-1.08;98.76
10978;BME280;5542;48.272;10.794;2023-02-15T00:34:23;97027.91;;;-0.96;98.40
10978;BME280;5542;48.272;10.794;2023-02-15T00:36:51;97020.47;;;-0.90;98.93
10978;BME280;5542;48.272;10.794;2023-02-15T00:39:19;97027.00;;;-0.86;97.02
10978;BME280;5542;48.272;10.794;2023-02-15T00:41:47;97023.09;;;-1.01;96.51
10978;BME280;5542;48.272;10.794;2023-02-15T00:44:14;97014.91;;;-1.06;95.10
10978;BME280;5542;48.272;10.794;2023-02-15T00:46:40;97024.59;;;-1.19;94.17
10978;BME280;5542;48.272;10.794;2023-02-15T00:49:07;97026.47;;;-1.21;95.02
10978;BME280;5542;48.272;10.794;2023-02-15T00:51:34;97017.47;;;-1.27;93.94
10978;BME280;5542;48.272;10.794;2023-02-15T00:54:00;97013.44;;;-1.52;94.53
10978;BME280;5542;48.272;10.794;2023-02-15T00:56:28;97010.38;;;-1.57;95.36
10978;BME280;5542;48.272;10.794;2023-02-15T00:58:55;97013.69;;;-1.55;95.96
10978;BME280;5542;48.272;10.794;2023-02-15T01:01:22;97005.94;;;-1.55;96.26
10978;BME280;5542;48.272;10.794;2023-02-15T01:03:51;97012.16;;;-1.46;96.68
10978;BME280;5542;48.272;10.794;2023-02-15T01:06:17;97005.53;;;-1.39;96.53
10978;BME280;5542;48.272;10.794;2023-02-15T01:08:45;96997.88;;;-1.30;96.46
10978;BME280;5542;48.272;10.794;2023-02-15T01:11:13;96998.66;;;-1.18;96.24
10978;BME280;5542;48.272;10.794;2023-02-15T01:13:41;96991.47;;;-1.14;96.31
10978;BME280;5542;48.272;10.794;2023-02-15T01:16:08;96988.28;;;-1.07;95.75
10978;BME280;5542;48.272;10.794;2023-02-15T01:18:35;96986.94;;;-1.01;95.28
10978;BME280;5542;48.272;10.794;2023-02-15T01:21:09;96985.00;;;-1.09;94.78
10978;BME280;5542;48.272;10.794;2023-02-15T01:23:36;96984.63;;;-1.04;94.26
10978;BME280;5542;48.272;10.794;2023-02-15T01:26:02;96986.94;;;-1.01;94.56
10978;BME280;5542;48.272;10.794;2023-02-15T01:28:29;96983.56;;;-1.01;94.42
10978;BME280;5542;48.272;10.794;2023-02-15T01:30:57;96984.38;;;-1.01;94.57
10978;BME280;5542;48.272;10.794;2023-02-15T01:33:24;96984.88;;;-1.07;93.71
10978;BME280;5542;48.272;10.794;2023-02-15T01:35:56;96987.97;;;-1.13;94.06
10978;BME280;5542;48.272;10.794;2023-02-15T01:38:23;96987.00;;;-1.12;94.00
10978;BME280;5542;48.272;10.794;2023-02-15T01:40:50;96985.81;;;-1.08;94.46
10978;BME280;5542;48.272;10.794;2023-02-15T01:43:17;96982.88;;;-1.04;94.14
10978;BME280;5542;48.272;10.794;2023-02-15T01:45:46;96984.63;;;-1.04;93.51
10978;BME280;5542;48.272;10.794;2023-02-15T01:48:19;96978.75;;;-1.06;94.19
10978;BME280;5542;48.272;10.794;2023-02-15T01:50:50;96974.31;;;-1.04;94.08
10978;BME280;5542;48.272;10.794;2023-02-15T01:53:21;96975.22;;;-1.05;93.80
10978;BME280;5542;48.272;10.794;2023-02-15T01:55:53;96976.63;;;-1.01;93.88
10978;BME280;5542;48.272;10.794;2023-02-15T01:58:22;96973.66;;;-0.96;94.29
10978;BME280;5542;48.272;10.794;2023-02-15T02:00:49;96972.59;;;-0.94;94.36
10978;BME280;5542;48.272;10.794;2023-02-15T02:03:18;96974.00;;;-0.90;94.67
10978;BME280;5542;48.272;10.794;2023-02-15T02:05:50;96966.94;;;-0.88;94.40
10978;BME280;5542;48.272;10.794;2023-02-15T02:08:16;96973.16;;;-0.90;94.28
10978;BME280;5542;48.272;10.794;2023-02-15T02:10:43;96967.81;;;-0.98;93.48
10978;BME280;5542;48.272;10.794;2023-02-15T02:13:10;96974.47;;;-0.96;93.53
10978;BME280;5542;48.272;10.794;2023-02-15T02:15:44;96965.81;;;-0.95;93.34
10978;BME280;5542;48.272;10.794;2023-02-15T02:18:24;96973.03;;;-0.89;93.66
10978;BME280;5542;48.272;10.794;2023-02-15T02:21:23;96963.38;;;-0.87;93.85
10978;BME280;5542;48.272;10.794;2023-02-15T02:24:20;96961.00;;;-0.79;93.58
10978;BME280;5542;48.272;10.794;2023-02-15T02:27:17;96965.88;;;-0.85;93.45
10978;BME280;5542;48.272;10.794;2023-02-15T02:30:24;96969.69;;;-0.80;93.02
10978;BME280;5542;48.272;10.794;2023-02-15T02:33:20;96957.53;;;-0.89;91.99
10978;BME280;5542;48.272;10.794;2023-02-15T02:35:57;96967.88;;;-0.89;92.51
10978;BME280;5542;48.272;10.794;2023-02-15T02:38:28;96961.81;;;-0.78;89.49
10978;BME280;5542;48.272;10.794;2023-02-15T02:41:07;96963.53;;;-1.09;89.99
10978;BME280;5542;48.272;10.794;2023-02-15T02:43:45;96958.69;;;-1.23;91.17
10978;BME280;5542;48.272;10.794;2023-02-15T02:46:17;96959.06;;;-1.28;92.04
10978;BME280;5542;48.272;10.794;2023-02-15T02:48:48;96951.25;;;-1.17;93.02
10978;BME280;5542;48.272;10.794;2023-02-15T02:51:15;96954.84;;;-1.08;92.33
10978;BME280;5542;48.272;10.794;2023-02-15T02:53:48;96955.28;;;-1.03;92.36
10978;BME280;5542;48.272;10.794;2023-02-15T02:56:21;96951.56;;;-1.10;92.67
10978;BME280;5542;48.272;10.794;2023-02-15T02:58:51;96944.06;;;-1.13;92.53
10978;BME280;5542;48.272;10.794;2023-02-15T03:01:24;96950.66;;;-1.20;92.52
10978;BME280;5542;48.272;10.794;2023-02-15T03:03:57;96953.97;;;-1.18;92.78
10978;BME280;5542;48.272;10.794;2023-02-15T03:06:39;96949.09;;;-1.12;92.57
10978;BME280;5542;48.272;10.794;2023-02-15T03:09:11;96954.56;;;-1.05;92.58
10978;BME280;5542;48.272;10.794;2023-02-15T03:11:43;96951.88;;;-1.04;92.76
10978;BME280;5542;48.272;10.794;2023-02-15T03:14:10;96948.53;;;-0.94;91.89
10978;BME280;5542;48.272;10.794;2023-02-15T03:16:40;96947.53;;;-1.03;91.83
10978;BME280;5542;48.272;10.794;2023-02-15T03:19:13;96939.91;;;-1.05;91.87
10978;BME280;5542;48.272;10.794;2023-02-15T03:21:44;96941.72;;;-1.16;91.63
10978;BME280;5542;48.272;10.794;2023-02-15T03:24:16;96944.44;;;-1.18;91.94
10978;BME280;5542;48.272;10.794;2023-02-15T03:26:46;96938.94;;;-1.24;92.37
10978;BME280;5542;48.272;10.794;2023-02-15T03:29:15;96942.25;;;-1.22;92.56
10978;BME280;5542;48.272;10.794;2023-02-15T03:31:45;96938.94;;;-1.24;92.91
10978;BME280;5542;48.272;10.794;2023-02-15T03:34:14;96935.44;;;-1.23;93.31
10978;BME280;5542;48.272;10.794;2023-02-15T03:36:46;96934.94;;;-1.17;93.90
10978;BME280;5542;48.272;10.794;2023-02-15T03:39:19;96942.56;;;-1.16;93.77
10978;BME280;5542;48.272;10.794;2023-02-15T03:41:54;96935.75;;;-1.17;92.11
10978;BME280;5542;48.272;10.794;2023-02-15T03:44:27;96933.53;;;-1.42;91.75
10978;BME280;5542;48.272;10.794;2023-02-15T03:47:00;96939.69;;;-1.55;92.36
10978;BME280;5542;48.272;10.794;2023-02-15T03:49:36;96940.56;;;-1.65;92.53
10978;BME280;5542;48.272;10.794;2023-02-15T03:52:04;96953.09;;;-1.61;92.16
10978;BME280;5542;48.272;10.794;2023-02-15T03:54:34;96948.06;;;-1.73;93.32
10978;BME280;5542;48.272;10.794;2023-02-15T03:57:15;96946.31;;;-1.73;94.02
10978;BME280;5542;48.272;10.794;2023-02-15T04:00:02;96948.66;;;-1.70;94.00
10978;BME280;5542;48.272;10.794;2023-02-15T04:02:55;96935.84;;;-1.71;93.83
10978;BME280;5542;48.272;10.794;2023-02-15T04:05:27;96935.84;;;-1.60;93.09
10978;BME280;5542;48.272;10.794;2023-02-15T04:07:53;96934.56;;;-1.66;92.96
10978;BME280;5542;48.272;10.794;2023-02-15T04:10:20;96937.06;;;-1.75;92.85
10978;BME280;5542;48.272;10.794;2023-02-15T04:13:04;96945.16;;;-1.80;93.14
10978;BME280;5542;48.272;10.794;2023-02-15T04:15:30;96945.84;;;-1.78;93.92
10978;BME280;5542;48.272;10.794;2023-02-15T04:18:15;96952.78;;;-1.78;94.05
10978;BME280;5542;48.272;10.794;2023-02-15T04:20:44;96948.53;;;-1.68;93.80
10978;BME280;5542;48.272;10.794;2023-02-15T04:23:29;96951.69;;;-1.76;93.58
10978;BME280;5542;48.272;10.794;2023-02-15T04:26:13;96951.84;;;-1.77;93.64
10978;BME280;5542;48.272;10.794;2023-02-15T04:28:40;96951.97;;;-1.79;93.72
10978;BME280;5542;48.272;10.794;2023-02-15T04:31:06;96950.88;;;-1.76;93.87
10978;BME280;5542;48.272;10.794;2023-02-15T04:33:33;96949.34;;;-1.68;94.33
10978;BME280;5542;48.272;10.794;2023-02-15T04:36:02;96952.72;;;-1.67;93.98
10978;BME280;5542;48.272;10.794;2023-02-15T04:38:29;96953.53;;;-1.67;94.07
10978;BME280;5542;48.272;10.794;2023-02-15T04:40:55;96951.19;;;-1.59;94.21
10978;BME280;5542;48.272;10.794;2023-02-15T04:43:22;96950.81;;;-1.54;92.99
10978;BME280;5542;48.272;10.794;2023-02-15T04:45:49;96950.59;;;-1.62;93.23
10978;BME280;5542;48.272;10.794;2023-02-15T04:48:16;96946.38;;;-1.63;93.49
10978;BME280;5542;48.272;10.794;2023-02-15T04:50:43;96951.41;;;-1.62;94.31
10978;BME280;5542;48.272;10.794;2023-02-15T04:53:11;96944.16;;;-1.57;94.75
10978;BME280;5542;48.272;10.794;2023-02-15T04:55:38;96942.34;;;-1.45;94.60
10978;BME280;5542;48.272;10.794;2023-02-15T04:58:04;96952.09;;;-1.48;93.92
10978;BME280;5542;48.272;10.794;2023-02-15T05:00:31;96942.94;;;-1.52;93.47
10978;BME280;5542;48.272;10.794;2023-02-15T05:02:57;96938.16;;;-1.57;93.88
10978;BME280;5542;48.272;10.794;2023-02-15T05:05:24;96939.81;;;-1.56;94.01
10978;BME280;5542;48.272;10.794;2023-02-15T05:07:51;96935.53;;;-1.46;92.92
10978;BME280;5542;48.272;10.794;2023-02-15T05:10:19;96929.13;;;-1.51;93.04
10978;BME280;5542;48.272;10.794;2023-02-15T05:12:45;96927.47;;;-1.52;93.26
10978;BME280;5542;48.272;10.794;2023-02-15T05:15:12;96927.91;;;-1.47;92.88
10978;BME280;5542;48.272;10.794;2023-02-15T05:17:38;96927.09;;;-1.48;92.69
10978;BME280;5542;48.272;10.794;2023-02-15T05:20:06;96930.75;;;-1.50;91.92
10978;BME280;5542;48.272;10.794;2023-02-15T05:22:33;96931.63;;;-1.61;92.35
10978;BME280;5542;48.272;10.794;2023-02-15T05:24:59;96929.28;;;-1.64;93.54
10978;BME280;5542;48.272;10.794;2023-02-15T05:27:44;96924.41;;;-1.46;93.44
10978;BME280;5542;48.272;10.794;2023-02-15T05:30:25;96925.63;;;-1.62;92.86
10978;BME280;5542;48.272;10.794;2023-02-15T05:32:51;96933.00;;;-1.57;93.70
10978;BME280;5542;48.272;10.794;2023-02-15T05:35:18;96930.84;;;-1.52;93.17
10978;BME280;5542;48.272;10.794;2023-02-15T05:37:45;96937.22;;;-1.56;92.81
10978;BME280;5542;48.272;10.794;2023-02-15T05:40:11;96942.75;;;-1.61;92.21
10978;BME280;5542;48.272;10.794;2023-02-15T05:42:38;96933.88;;;-1.68;91.96
10978;BME280;5542;48.272;10.794;2023-02-15T05:45:07;96936.94;;;-1.74;91.62
10978;BME280;5542;48.272;10.794;2023-02-15T05:47:33;96936.59;;;-1.81;92.11
10978;BME280;5542;48.272;10.794;2023-02-15T05:50:00;96942.59;;;-1.80;92.55
10978;BME280;5542;48.272;10.794;2023-02-15T05:52:26;96941.50;;;-1.77;93.00
10978;BME280;5542;48.272;10.794;2023-02-15T05:54:53;96938.69;;;-1.74;93.26
10978;BME280;5542;48.272;10.794;2023-02-15T05:57:19;96942.22;;;-1.75;93.18
10978;BME280;5542;48.272;10.794;2023-02-15T05:59:46;96943.22;;;-1.67;93.60
10978;BME280;5542;48.272;10.794;2023-02-15T06:02:14;96936.31;;;-1.66;94.06
10978;BME280;5542;48.272;10.794;2023-02-15T06:04:40;96939.38;;;-1.61;93.92
10978;BME280;5542;48.272;10.794;2023-02-15T06:07:07;96940.28;;;-1.62;93.54
10978;BME280;5542;48.272;10.794;2023-02-15T06:09:33;96947.91;;;-1.61;93.26
10978;BME280;5542;48.272;10.794;2023-02-15T06:12:00;96950.50;;;-1.61;93.35
10978;BME280;5542;48.272;10.794;2023-02-15T06:14:26;96948.75;;;-1.60;93.07
10978;BME280;5542;48.272;10.794;2023-02-15T06:16:53;96957.59;;;-1.53;93.18
10978;BME280;5542;48.272;10.794;2023-02-15T06:19:21;96950.81;;;-1.54;92.71
10978;BME280;5542;48.272;10.794;2023-02-15T06:21:47;96950.59;;;-1.51;91.97
10978;BME280;5542;48.272;10.794;2023-02-15T06:24:14;96952.00;;;-1.58;91.77
10978;BME280;5542;48.272;10.794;2023-02-15T06:26:41;96954.13;;;-1.63;91.01
10978;BME280;5542;48.272;10.794;2023-02-15T06:29:07;96955.22;;;-1.77;91.33
10978;BME280;5542;48.272;10.794;2023-02-15T06:31:34;96962.84;;;-1.75;91.66
10978;BME280;5542;48.272;10.794;2023-02-15T06:34:00;96960.28;;;-1.75;91.68
10978;BME280;5542;48.272;10.794;2023-02-15T06:36:29;96955.13;;;-1.75;92.63
10978;BME280;5542;48.272;10.794;2023-02-15T06:38:56;96966.44;;;-1.67;92.37
10978;BME280;5542;48.272;10.794;2023-02-15T06:41:23;96961.41;;;-1.68;92.85
10978;BME280;5542;48.272;10.794;2023-02-15T06:43:50;96964.59;;;-1.65;93.19
10978;BME280;5542;48.272;10.794;2023-02-15T06:46:16;96960.91;;;-1.62;93.21
10978;BME280;5542;48.272;10.794;2023-02-15T06:48:43;96955.03;;;-1.53;93.59
10978;BME280;5542;48.272;10.794;2023-02-15T06:51:09;96974.84;;;-1.42;91.42
10978;BME280;5542;48.272;10.794;2023-02-15T06:53:37;96962.66;;;-1.51;91.36
10978;BME280;5542;48.272;10.794;2023-02-15T06:56:07;96961.13;;;-1.54;91.03
10978;BME280;5542;48.272;10.794;2023-02-15T06:58:34;96963.94;;;-1.57;91.56
10978;BME280;5542;48.272;10.794;2023-02-15T07:01:01;96968.44;;;-1.59;91.71
10978;BME280;5542;48.272;10.794;2023-02-15T07:03:27;96972.41;;;-1.55;91.54
10978;BME280;5542;48.272;10.794;2023-02-15T07:05:54;96975.13;;;-1.57;91.77
10978;BME280;5542;48.272;10.794;2023-02-15T07:08:21;96971.00;;;-1.59;92.09
10978;BME280;5542;48.272;10.794;2023-02-15T07:10:49;96972.91;;;-1.61;91.76
10978;BME280;5542;48.272;10.794;2023-02-15T07:13:16;96971.59;;;-1.56;91.28
10978;BME280;5542;48.272;10.794;2023-02-15T07:15:42;96978.28;;;-1.64;90.82
10978;BME280;5542;48.272;10.794;2023-02-15T07:18:08;96971.97;;;-1.60;90.68
10978;BME280;5542;48.272;10.794;2023-02-15T07:20:36;96970.44;;;-1.63;91.68
10978;BME280;5542;48.272;10.794;2023-02-15T07:23:03;96967.38;;;-1.57;90.93
10978;BME280;5542;48.272;10.794;2023-02-15T07:25:30;96965.97;;;-1.61;91.45
10978;BME280;5542;48.272;10.794;2023-02-15T07:28:02;96967.47;;;-1.58;91.77
10978;BME280;5542;48.272;10.794;2023-02-15T07:30:29;96964.31;;;-1.50;90.86
10978;BME280;5542;48.272;10.794;2023-02-15T07:32:56;96964.53;;;-1.53;91.74
10978;BME280;5542;48.272;10.794;2023-02-15T07:35:46;96971.59;;;-1.56;91.66
10978;BME280;5542;48.272;10.794;2023-02-15T07:38:13;96971.16;;;-1.40;92.00
10978;BME280;5542;48.272;10.794;2023-02-15T07:40:40;96963.94;;;-1.46;91.48
10978;BME280;5542;48.272;10.794;2023-02-15T07:43:08;96950.22;;;-1.46;91.65
10978;BME280;5542;48.272;10.794;2023-02-15T07:45:35;96961.81;;;-1.52;91.65
10978;BME280;5542;48.272;10.794;2023-02-15T07:48:02;96955.28;;;-1.56;91.40
10978;BME280;5542;48.272;10.794;2023-02-15T07:50:29;96958.72;;;-1.67;91.22
10978;BME280;5542;48.272;10.794;2023-02-15T07:52:55;96950.13;;;-1.56;90.22
10978;BME280;5542;48.272;10.794;2023-02-15T07:55:22;96946.63;;;-1.66;90.66
10978;BME280;5542;48.272;10.794;2023-02-15T07:57:50;96951.22;;;-1.70;91.20
10978;BME280;5542;48.272;10.794;2023-02-15T08:00:21;96948.16;;;-1.64;92.15
10978;BME280;5542;48.272;10.794;2023-02-15T08:02:51;96944.38;;;-1.60;92.01
10978;BME280;5542;48.272;10.794;2023-02-15T08:05:38;96947.19;;;-1.51;93.01
10978;BME280;5542;48.272;10.794;2023-02-15T08:08:05;96944.69;;;-1.42;93.09
10978;BME280;5542;48.272;10.794;2023-02-15T08:10:32;96944.84;;;-1.34;93.86
10978;BME280;5542;48.272;10.794;2023-02-15T08:13:16;96945.25;;;-1.17;92.82
10978;BME280;5542;48.272;10.794;2023-02-15T08:15:49;96944.56;;;-1.19;92.36
10978;BME280;5542;48.272;10.794;2023-02-15T08:18:16;96953.38;;;-1.22;92.06
10978;BME280;5542;48.272;10.794;2023-02-15T08:20:48;96949.91;;;-1.11;92.18
10978;BME280;5542;48.272;10.794;2023-02-15T08:23:15;96945.78;;;-1.02;92.42
10978;BME280;5542;48.272;10.794;2023-02-15T08:25:41;96943.88;;;-1.00;91.39
10978;BME280;5542;48.272;10.794;2023-02-15T08:28:08;96948.88;;;-1.09;91.76
10978;BME280;5542;48.272;10.794;2023-02-15T08:30:34;96942.63;;;-1.06;91.78
10978;BME280;5542;48.272;10.794;2023-02-15T08:33:02;96936.50;;;-1.05;92.25
10978;BME280;5542;48.272;10.794;2023-02-15T08:35:29;96946.72;;;-1.04;92.13
10978;BME280;5542;48.272;10.794;2023-02-15T08:37:56;96937.88;;;-1.01;91.82
10978;BME280;5542;48.272;10.794;2023-02-15T08:40:22;96940.75;;;-1.04;91.06
10978;BME280;5542;48.272;10.794;2023-02-15T08:42:49;96945.63;;;-1.01;90.75
10978;BME280;5542;48.272;10.794;2023-02-15T08:45:15;96946.81;;;-1.05;90.38
10978;BME280;5542;48.272;10.794;2023-02-15T08:47:42;96944.38;;;-1.07;91.04
10978;BME280;5542;48.272;10.794;2023-02-15T08:50:10;96946.72;;;-1.04;90.43
10978;BME280;5542;48.272;10.794;2023-02-15T08:52:37;96947.63;;;-1.05;89.82
10978;BME280;5542;48.272;10.794;2023-02-15T08:55:03;96953.22;;;-1.09;90.26
10978;BME280;5542;48.272;10.794;2023-02-15T08:57:30;96945.06;;;-1.05;91.02
10978;BME280;5542;48.272;10.794;2023-02-15T08:59:56;96949.84;;;-1.00;91.43
10978;BME280;5542;48.272;10.794;2023-02-15T09:02:23;96944.88;;;-0.92;91.06
10978;BME280;5542;48.272;10.794;2023-02-15T09:04:49;96951.13;;;-0.94;90.43
10978;BME280;5542;48.272;10.794;2023-02-15T09:07:18;96953.13;;;-0.98;90.72
10978;BME280;5542;48.272;10.794;2023-02-15T09:09:45;96950.31;;;-0.95;91.36
10978;BME280;5542;48.272;10.794;2023-02-15T09:12:11;96949.59;;;-0.97;91.44
10978;BME280;5542;48.272;10.794;2023-02-15T09:14:38;96951.66;;;-0.91;92.08
10978;BME280;5542;48.272;10.794;2023-02-15T09:17:05;96947.78;;;-0.85;92.34
10978;BME280;5542;48.272;10.794;2023-02-15T09:19:31;96955.53;;;-0.85;92.66
10978;BME280;5542;48.272;10.794;2023-02-15T09:21:58;96940.19;;;-0.77;92.98
10978;BME280;5542;48.272;10.794;2023-02-15T09:24:26;96943.53;;;-0.65;91.25
10978;BME280;5542;48.272;10.794;2023-02-15T09:26:53;96945.31;;;-0.66;91.90
10978;BME280;5542;48.272;10.794;2023-02-15T09:29:20;96942.81;;;-0.67;90.73
10978;BME280;5542;48.272;10.794;2023-02-15T09:31:49;96944.72;;;-0.69;91.37
10978;BME280;5542;48.272;10.794;2023-02-15T09:34:17;96940.97;;;-0.86;91.32
10978;BME280;5542;48.272;10.794;2023-02-15T09:36:45;96940.56;;;-0.82;92.05
10978;BME280;5542;48.272;10.794;2023-02-15T09:39:13;96940.56;;;-0.82;91.66
10978;BME280;5542;48.272;10.794;2023-02-15T09:42:07;96945.75;;;-0.82;92.40
10978;BME280;5542;48.272;10.794;2023-02-15T09:44:53;96951.44;;;-0.88;92.62
10978;BME280;5542;48.272;10.794;2023-02-15T09:47:41;96947.00;;;-0.76;94.01
10978;BME280;5542;48.272;10.794;2023-02-15T09:50:13;96936.06;;;-0.59;93.56
10978;BME280;5542;48.272;10.794;2023-02-15T09:52:57;96939.97;;;-0.34;91.78
10978;BME280;5542;48.272;10.794;2023-02-15T09:55:42;96944.97;;;-0.52;92.27
10978;BME280;5542;48.272;10.794;2023-02-15T09:58:20;96940.66;;;-0.41;92.79
10978;BME280;5542;48.272;10.794;2023-02-15T10:00:57;96940.50;;;-0.40;93.17
10978;BME280;5542;48.272;10.794;2023-02-15T10:03:37;96937.25;;;-0.42;92.81
10978;BME280;5542;48.272;10.794;2023-02-15T10:06:18;96945.84;;;-0.32;92.82
10978;BME280;5542;48.272;10.794;2023-02-15T10:09:06;96934.66;;;-0.42;93.05
10978;BME280;5542;48.272;10.794;2023-02-15T10:11:49;96939.84;;;-0.42;94.41
10978;BME280;5542;48.272;10.794;2023-02-15T10:14:49;96935.69;;;-0.23;95.29
10978;BME280;5542;48.272;10.794;2023-02-15T10:17:30;96934.06;;;-0.15;94.51
10978;BME280;5542;48.272;10.794;2023-02-15T10:20:08;96932.03;;;-0.11;94.80
10978;BME280;5542;48.272;10.794;2023-02-15T10:22:52;96928.66;;;-0.02;94.06
10978;BME280;5542;48.272;10.794;2023-02-15T10:25:31;96927.28;;;0.04;95.49
10978;BME280;5542;48.272;10.794;2023-02-15T10:28:05;96922.84;;;0.15;97.03
10978;BME280;5542;48.272;10.794;2023-02-15T10:30:42;96918.75;;;0.42;96.02
10978;BME280;5542;48.272;10.794;2023-02-15T10:33:16;96918.91;;;0.50;94.93
10978;BME280;5542;48.272;10.794;2023-02-15T10:35:56;96918.09;;;0.59;94.83
10978;BME280;5542;48.272;10.794;2023-02-15T10:38:33;96909.63;;;0.76;93.98
10978;BME280;5542;48.272;10.794;2023-02-15T10:41:12;96905.69;;;0.82;93.08
10978;BME280;5542;48.272;10.794;2023-02-15T10:44:02;96904.88;;;0.82;92.55
10978;BME280;5542;48.272;10.794;2023-02-15T10:46:50;96899.94;;;0.79;92.92
10978;BME280;5542;48.272;10.794;2023-02-15T10:49:29;96897.75;;;0.84;93.28
10978;BME280;5542;48.272;10.794;2023-02-15T10:52:11;96887.22;;;1.14;91.31
10978;BME280;5542;48.272;10.794;2023-02-15T10:54:45;96887.91;;;0.97;91.13
10978;BME280;5542;48.272;10.794;2023-02-15T10:57:22;96888.72;;;0.97;91.68
10978;BME280;5542;48.272;10.794;2023-02-15T11:00:05;96881.53;;;0.91;94.11
10978;BME280;5542;48.272;10.794;2023-02-15T11:02:46;96884.34;;;1.08;95.51
10978;BME280;5542;48.272;10.794;2023-02-15T11:05:26;96881.06;;;1.15;93.55
10978;BME280;5542;48.272;10.794;2023-02-15T11:07:59;96880.34;;;1.23;92.16
10978;BME280;5542;48.272;10.794;2023-02-15T11:10:32;96870.81;;;1.14;92.88
10978;BME280;5542;48.272;10.794;2023-02-15T11:13:04;96874.63;;;1.19;93.98
10978;BME280;5542;48.272;10.794;2023-02-15T11:15:35;96865.94;;;1.11;94.21
10978;BME280;5542;48.272;10.794;2023-02-15T11:18:09;96858.09;;;1.30;93.74
10978;BME280;5542;48.272;10.794;2023-02-15T11:20:42;96852.78;;;1.22;94.27
10978;BME280;5542;48.272;10.794;2023-02-15T11:23:13;96840.06;;;1.38;95.66
10978;BME280;5542;48.272;10.794;2023-02-15T11:25:43;96834.66;;;1.49;96.17
10978;BME280;5542;48.272;10.794;2023-02-15T11:28:18;96839.09;;;1.67;97.32
10978;BME280;5542;48.272;10.794;2023-02-15T11:30:49;96835.19;;;1.81;97.66
10978;BME280;5542;48.272;10.794;2023-02-15T11:33:22;96831.72;;;2.25;96.39
10978;BME280;5542;48.272;10.794;2023-02-15T11:35:54;96830.81;;;2.35;95.63
10978;BME280;5542;48.272;10.794;2023-02-15T11:38:24;96824.19;;;2.58;94.00
10978;BME280;5542;48.272;10.794;2023-02-15T11:40:55;96816.38;;;2.58;94.56
10978;BME280;5542;48.272;10.794;2023-02-15T11:43:26;96813.69;;;2.68;94.88
10978;BME280;5542;48.272;10.794;2023-02-15T11:45:56;96800.44;;;2.79;95.30
10978;BME280;5542;48.272;10.794;2023-02-15T11:48:24;96808.47;;;2.94;95.31
10978;BME280;5542;48.272;10.794;2023-02-15T11:50:51;96802.06;;;3.06;94.97
10978;BME280;5542;48.272;10.794;2023-02-15T11:53:19;96796.66;;;3.33;92.55
10978;BME280;5542;48.272;10.794;2023-02-15T11:55:50;96797.53;;;3.42;91.10
10978;BME280;5542;48.272;10.794;2023-02-15T11:58:25;96794.19;;;3.66;89.08
10978;BME280;5542;48.272;10.794;2023-02-15T12:00:58;96791.91;;;3.71;87.95
10978;BME280;5542;48.272;10.794;2023-02-15T12:03:38;96788.97;;;3.66;89.68
10978;BME280;5542;48.272;10.794;2023-02-15T12:06:15;96782.47;;;3.70;91.55
10978;BME280;5542;48.272;10.794;2023-02-15T12:08:51;96787.03;;;3.76;91.80
10978;BME280;5542;48.272;10.794;2023-02-15T12:11:23;96780.91;;;4.02;89.91
10978;BME280;5542;48.272;10.794;2023-02-15T12:13:56;96779.28;;;4.01;89.18
10978;BME280;5542;48.272;10.794;2023-02-15T12:16:24;96773.44;;;3.99;89.89
10978;BME280;5542;48.272;10.794;2023-02-15T12:18:55;96769.50;;;3.95;90.49
10978;BME280;5542;48.272;10.794;2023-02-15T12:21:28;96752.25;;;3.94;90.89
10978;BME280;5542;48.272;10.794;2023-02-15T12:24:00;96761.38;;;4.30;87.53
10978;BME280;5542;48.272;10.794;2023-02-15T12:26:28;96749.50;;;4.20;88.44
10978;BME280;5542;48.272;10.794;2023-02-15T12:28:58;96750.50;;;4.19;89.68
10978;BME280;5542;48.272;10.794;2023-02-15T12:31:31;96749.00;;;4.41;88.46
10978;BME280;5542;48.272;10.794;2023-02-15T12:34:00;96752.91;;;4.53;89.09
10978;BME280;5542;48.272;10.794;2023-02-15T12:36:30;96746.38;;;4.49;89.51
10978;BME280;5542;48.272;10.794;2023-02-15T12:39:17;96750.44;;;4.59;89.68
10978;BME280;5542;48.272;10.794;2023-02-15T12:41:46;96740.28;;;4.89;87.32
10978;BME280;5542;48.272;10.794;2023-02-15T12:44:21;96745.81;;;4.86;87.74
10978;BME280;5542;48.272;10.794;2023-02-15T12:46:57;96738.25;;;5.07;85.60
10978;BME280;5542;48.272;10.794;2023-02-15T12:49:26;96732.19;;;5.23;86.11
10978;BME280;5542;48.272;10.794;2023-02-15T12:51:55;96733.97;;;5.23;86.90
10978;BME280;5542;48.272;10.794;2023-02-15T12:54:29;96731.38;;;5.23;87.66
10978;BME280;5542;48.272;10.794;2023-02-15T12:56:56;96725.88;;;5.40;87.47
10978;BME280;5542;48.272;10.794;2023-02-15T12:59:23;96725.63;;;5.58;85.83
10978;BME280;5542;48.272;10.794;2023-02-15T13:01:51;96722.94;;;5.75;85.89
10978;BME280;5542;48.272;10.794;2023-02-15T13:04:22;96712.25;;;5.61;86.06
10978;BME280;5542;48.272;10.794;2023-02-15T13:06:52;96708.16;;;5.59;85.82
10978;BME280;5542;48.272;10.794;2023-02-15T13:09:21;96708.16;;;5.59;85.57
10978;BME280;5542;48.272;10.794;2023-02-15T13:11:50;96706.09;;;5.77;84.49
10978;BME280;5542;48.272;10.794;2023-02-15T13:14:18;96703.94;;;5.81;84.79
10978;BME280;5542;48.272;10.794;2023-02-15T13:16:47;96692.78;;;5.95;83.28
10978;BME280;5542;48.272;10.794;2023-02-15T13:19:17;96699.91;;;6.01;82.85
10978;BME280;5542;48.272;10.794;2023-02-15T13:21:47;96698.69;;;5.89;84.21